CheckWX is a tool to help pilots better visualize weather data.  It is not intended as a substitute for an official pre-flight weather briefing.

18:10:06 UTC

PAFR METAR
Bryant AAF Airport
Fort Richardson(Anchorage), Alaska, USA
Current

12 mins ago

PAFR 171758Z AUTO 04003KT 8SM OVC110 M03/M03 A2901 RMK AO2 SLP833 60000 T10271032 11004 21029 50000 $
Observed
Oct-17 @ 17:58 UTC
Wind
  • 040° at 3 KTS
Visibility
8 SM
Flight Rules
VFR
Cloud Levels
  • Overcast at 11,000' AGL
Temperature
-3°C / 27°F
Dewpoint
-3°C / 27°F
Humidity
100%
Altimeter
29.01" Hg
Pressure
982.42 hPa
Previous

1 hour ago

PAFR 171658Z AUTO 00000KT 9SM SCT110 M02/M03 A2902 RMK AO2 SLP836 T10241029 $
Observed
Oct-17 @ 16:58 UTC
Visibility
9 SM
Flight Rules
VFR
Cloud Levels
  • Scattered at 11,000' AGL
Temperature
-2°C / 28°F
Dewpoint
-3°C / 27°F
Humidity
93%
Altimeter
29.02" Hg
Pressure
982.72 hPa
Previous

2 hours ago

PAFR 171558Z AUTO 00000KT 10SM CLR M02/M02 A2901 RMK AO2 SLP833 T10201024 $
Observed
Oct-17 @ 15:58 UTC
Visibility
10 SM
Flight Rules
VFR
Cloud Levels
  • Clear skies
Temperature
-2°C / 28°F
Dewpoint
-2°C / 28°F
Humidity
100%
Altimeter
29.01" Hg
Pressure
982.42 hPa